createdAt,value
2022-08-10T00:01:44.545Z,18.80
2022-08-10T00:04:20.947Z,18.80
2022-08-10T00:06:50.400Z,18.80
2022-08-10T00:09:18.455Z,18.80
2022-08-10T00:11:46.591Z,18.80
2022-08-10T00:14:16.090Z,18.90
2022-08-10T00:16:44.101Z,19.00
2022-08-10T00:19:12.288Z,19.00
2022-08-10T00:21:40.572Z,18.80
2022-08-10T00:24:09.232Z,18.80
2022-08-10T00:27:57.817Z,18.70
2022-08-10T00:29:26.777Z,18.70
2022-08-10T00:31:58.537Z,18.80
2022-08-10T00:34:28.142Z,18.80
2022-08-10T00:36:56.318Z,18.80
2022-08-10T00:39:24.568Z,18.70
2022-08-10T00:42:01.508Z,18.70
2022-08-10T00:44:37.442Z,18.70
2022-08-10T00:47:06.075Z,18.70
2022-08-10T00:49:34.487Z,18.70
2022-08-10T00:52:03.604Z,18.70
2022-08-10T00:54:32.097Z,18.60
2022-08-10T00:57:15.805Z,18.60
2022-08-10T00:59:57.751Z,18.50
2022-08-10T01:02:28.840Z,18.50
2022-08-10T01:05:00.829Z,18.50
2022-08-10T01:07:43.090Z,18.50
2022-08-10T01:10:21.494Z,18.50
2022-08-10T01:12:56.110Z,18.40
2022-08-10T01:15:30.399Z,18.40
2022-08-10T01:18:03.585Z,18.30
2022-08-10T01:20:38.331Z,18.30
2022-08-10T01:23:34.560Z,18.20
2022-08-10T01:26:30.470Z,18.20
2022-08-10T01:29:14.255Z,18.10
2022-08-10T01:31:47.824Z,18.10
2022-08-10T01:34:21.267Z,18.20
2022-08-10T01:40:36.429Z,18.10
2022-08-10T01:43:09.785Z,18.10
2022-08-10T01:45:45.771Z,18.00
2022-08-10T01:48:31.167Z,17.90
2022-08-10T01:51:10.249Z,17.80
2022-08-10T01:53:42.802Z,17.70
2022-08-10T01:56:13.461Z,17.80
2022-08-10T01:58:43.335Z,17.80
2022-08-10T02:01:16.926Z,17.80
2022-08-10T02:04:04.405Z,17.80
2022-08-10T02:06:38.236Z,17.70
2022-08-10T02:09:08.126Z,17.70
2022-08-10T02:12:06.254Z,17.70
2022-08-10T02:14:34.106Z,17.60
2022-08-10T02:17:04.787Z,17.60
2022-08-10T02:19:36.594Z,17.60
2022-08-10T02:22:36.770Z,17.70
2022-08-10T02:24:55.855Z,17.70
2022-08-10T02:27:26.037Z,17.70
2022-08-10T02:29:55.683Z,17.70
2022-08-10T02:32:37.962Z,17.70
2022-08-10T02:35:20.898Z,17.60
2022-08-10T02:37:52.683Z,17.50
2022-08-10T02:45:02.450Z,17.50
2022-08-10T02:45:22.913Z,17.40
2022-08-10T02:46:09.529Z,17.30
2022-08-10T02:48:44.365Z,17.30
2022-08-10T02:51:19.820Z,17.20
2022-08-10T02:54:14.765Z,17.20
2022-08-10T02:56:50.097Z,17.10
2022-08-10T02:59:26.771Z,17.10
2022-08-10T03:02:09.588Z,17.10
2022-08-10T03:04:55.792Z,17.10
2022-08-10T03:07:44.090Z,17.20
2022-08-10T03:10:17.170Z,17.20
2022-08-10T03:12:48.681Z,17.20
2022-08-10T03:15:19.602Z,17.20
2022-08-10T03:17:57.866Z,17.20
2022-08-10T03:20:37.896Z,17.10
2022-08-10T03:23:11.838Z,17.10
2022-08-10T03:25:41.019Z,17.10
2022-08-10T03:28:22.230Z,17.10
2022-08-10T03:30:50.419Z,17.10
2022-08-10T03:33:19.075Z,17.10
2022-08-10T03:36:40.508Z,17.00
2022-08-10T03:38:37.202Z,17.00
2022-08-10T03:41:09.602Z,17.00
2022-08-10T03:43:38.863Z,17.00
2022-08-10T03:46:10.783Z,17.00
2022-08-10T03:48:48.897Z,16.90
2022-08-10T03:51:19.777Z,16.90
2022-08-10T03:54:02.930Z,16.90
2022-08-10T03:56:36.467Z,16.90
2022-08-10T03:59:05.548Z,16.90
2022-08-10T04:02:43.693Z,16.90
2022-08-10T04:04:24.547Z,16.90
2022-08-10T04:06:54.838Z,16.90
2022-08-10T04:09:42.966Z,17.00
2022-08-10T04:12:14.950Z,17.00
2022-08-10T04:14:49.641Z,17.00
2022-08-10T04:18:03.363Z,17.00
2022-08-10T04:20:14.619Z,17.00
2022-08-10T04:22:44.468Z,17.00
2022-08-10T04:25:16.075Z,17.00
2022-08-10T04:27:45.007Z,17.00
2022-08-10T04:30:13.736Z,17.00
2022-08-10T04:32:43.375Z,17.00
2022-08-10T04:35:13.232Z,17.10
2022-08-10T04:37:47.141Z,17.10
2022-08-10T04:40:28.836Z,17.10
2022-08-10T04:43:01.351Z,17.20
2022-08-10T04:45:49.857Z,17.10
2022-08-10T04:48:43.249Z,17.10
2022-08-10T04:51:10.774Z,17.10
2022-08-10T04:54:02.707Z,17.10
2022-08-10T04:56:32.997Z,17.10
2022-08-10T04:59:01.191Z,17.20
2022-08-10T05:02:21.985Z,17.20
2022-08-10T05:04:35.528Z,17.10
2022-08-10T05:07:06.147Z,17.00
2022-08-10T05:09:34.482Z,17.00
2022-08-10T05:12:24.322Z,17.00
2022-08-10T05:14:53.888Z,17.10
2022-08-10T05:17:24.003Z,17.10
2022-08-10T05:20:02.147Z,17.20
2022-08-10T05:22:33.661Z,17.20
2022-08-10T05:25:01.750Z,17.20
2022-08-10T05:27:31.244Z,17.30
2022-08-10T05:30:01.714Z,17.30
2022-08-10T05:32:31.295Z,17.30
2022-08-10T05:34:59.443Z,17.30
2022-08-10T05:38:12.089Z,17.40
2022-08-10T05:40:18.195Z,17.40
2022-08-10T05:42:47.706Z,17.40
2022-08-10T05:45:22.024Z,17.40
2022-08-10T05:48:41.658Z,17.40
2022-08-10T05:50:38.617Z,17.50
2022-08-10T05:54:00.956Z,17.50
2022-08-10T05:55:55.546Z,17.50
2022-08-10T05:58:25.103Z,17.50
2022-08-10T06:00:57.042Z,17.50
2022-08-10T06:03:28.743Z,17.60
2022-08-10T06:05:59.626Z,17.60
2022-08-10T06:08:31.851Z,17.60
2022-08-10T06:12:28.356Z,17.60
2022-08-10T06:14:16.034Z,17.60
2022-08-10T06:16:45.718Z,17.60
2022-08-10T06:19:14.722Z,17.60
2022-08-10T06:22:00.772Z,17.50
2022-08-10T06:24:31.306Z,17.60
2022-08-10T06:26:59.874Z,17.60
2022-08-10T06:29:33.192Z,17.60
2022-08-10T06:32:02.193Z,17.60
2022-08-10T06:34:33.813Z,17.80
2022-08-10T06:37:04.633Z,17.90
2022-08-10T06:39:34.564Z,18.00
2022-08-10T06:42:15.783Z,18.10
2022-08-10T06:44:53.686Z,18.20
2022-08-10T06:47:25.284Z,18.30
2022-08-10T06:50:00.021Z,18.40
2022-08-10T06:52:33.561Z,18.60
2022-08-10T06:55:05.150Z,18.80
2022-08-10T06:57:35.345Z,19.00
2022-08-10T07:00:08.051Z,19.30
2022-08-10T07:02:42.760Z,19.50
2022-08-10T07:05:15.967Z,19.60
2022-08-10T07:07:46.785Z,19.80
2022-08-10T07:10:19.747Z,20.00
2022-08-10T07:12:49.162Z,20.20
2022-08-10T07:15:20.536Z,20.40
2022-08-10T07:17:49.557Z,20.60
2022-08-10T07:20:19.851Z,20.80
2022-08-10T07:23:08.120Z,20.90
2022-08-10T07:25:40.519Z,21.10
2022-08-10T07:28:09.361Z,21.20
2022-08-10T07:30:40.981Z,21.40
2022-08-10T07:33:10.538Z,21.60
2022-08-10T07:35:42.322Z,21.70
2022-08-10T07:38:18.253Z,21.80
2022-08-10T07:40:47.528Z,21.90
2022-08-10T07:43:17.542Z,22.00
2022-08-10T07:45:48.653Z,22.20
2022-08-10T07:48:19.837Z,22.40
2022-08-10T07:50:49.320Z,22.50
2022-08-10T07:53:22.516Z,22.70
2022-08-10T07:56:07.449Z,22.90
2022-08-10T07:58:47.320Z,23.10
2022-08-10T08:01:25.204Z,23.30
2022-08-10T08:04:05.958Z,23.30
2022-08-10T08:06:40.553Z,23.40
2022-08-10T08:09:08.986Z,23.50
2022-08-10T08:11:38.894Z,23.60
2022-08-10T08:14:09.547Z,23.70
2022-08-10T08:16:43.562Z,23.80
2022-08-10T08:19:37.145Z,23.90
2022-08-10T08:24:09.204Z,24.10
2022-08-10T08:24:52.536Z,24.30
2022-08-10T08:27:21.816Z,24.30
2022-08-10T08:29:51.628Z,24.40
2022-08-10T08:32:24.026Z,24.60
2022-08-10T08:34:56.134Z,24.70
2022-08-10T08:38:31.085Z,24.70
2022-08-10T08:40:18.723Z,24.80
2022-08-10T08:43:05.961Z,24.90
2022-08-10T08:46:01.563Z,24.90
2022-08-10T08:49:09.558Z,25.10
2022-08-10T08:52:09.538Z,25.20
2022-08-10T08:54:46.524Z,25.40
2022-08-10T08:57:49.176Z,25.60
2022-08-10T09:00:19.835Z,25.80
2022-08-10T09:03:06.084Z,25.90
2022-08-10T09:05:59.602Z,26.00
2022-08-10T09:08:52.776Z,26.10
2022-08-10T09:11:35.966Z,26.30
2022-08-10T09:14:12.505Z,26.40
2022-08-10T09:16:48.616Z,26.50
2022-08-10T09:19:35.530Z,26.60
2022-08-10T09:22:18.883Z,26.60
2022-08-10T09:24:52.951Z,26.70
2022-08-10T09:27:23.857Z,26.80
2022-08-10T09:29:57.209Z,26.80
2022-08-10T09:36:15.194Z,26.70
2022-08-10T09:36:25.390Z,26.80
2022-08-10T09:38:34.809Z,27.00
2022-08-10T09:41:17.046Z,27.10
2022-08-10T09:44:01.448Z,27.30
2022-08-10T09:46:43.421Z,27.30
2022-08-10T09:49:25.831Z,27.40
2022-08-10T09:52:03.191Z,27.50
2022-08-10T09:55:02.744Z,27.40
2022-08-10T09:57:44.334Z,27.50
2022-08-10T10:00:17.327Z,27.70
2022-08-10T10:02:57.526Z,27.80
2022-08-10T10:05:50.249Z,27.80
2022-08-10T10:08:27.590Z,27.90
2022-08-10T10:11:04.189Z,27.90
2022-08-10T10:14:01.678Z,28.10
2022-08-10T10:16:44.622Z,28.20
2022-08-10T10:19:25.672Z,28.30
2022-08-10T10:22:01.281Z,28.40
2022-08-10T10:24:35.690Z,28.40
2022-08-10T10:27:16.799Z,28.40
2022-08-10T10:29:58.408Z,28.50
2022-08-10T10:32:37.374Z,28.50
2022-08-10T10:35:16.467Z,28.60
2022-08-10T10:38:02.814Z,28.70
2022-08-10T10:40:43.131Z,28.60
2022-08-10T10:43:29.248Z,28.70
2022-08-10T10:46:05.938Z,28.60
2022-08-10T10:48:41.258Z,28.70
2022-08-10T10:51:17.144Z,28.70
2022-08-10T10:53:50.686Z,28.70
2022-08-10T10:56:27.183Z,28.80
2022-08-10T10:59:33.262Z,29.00
2022-08-10T11:02:06.448Z,28.90
2022-08-10T11:04:43.484Z,29.00
2022-08-10T11:07:21.933Z,29.00
2022-08-10T11:10:05.014Z,29.10
2022-08-10T11:13:03.038Z,29.10
2022-08-10T11:15:58.860Z,29.20
2022-08-10T11:18:34.234Z,29.40
2022-08-10T11:21:07.722Z,29.50
2022-08-10T11:23:44.112Z,29.60
2022-08-10T11:26:17.668Z,29.60
2022-08-10T11:28:49.794Z,29.60
2022-08-10T11:31:27.697Z,29.70
2022-08-10T11:34:49.273Z,29.70
2022-08-10T11:36:58.920Z,29.60
2022-08-10T11:39:49.345Z,29.70
2022-08-10T11:42:35.909Z,29.60
2022-08-10T11:45:10.467Z,29.70
2022-08-10T11:47:49.395Z,29.50
2022-08-10T11:50:24.651Z,29.30
2022-08-10T11:53:04.168Z,29.10
2022-08-10T11:55:33.925Z,29.30
2022-08-10T11:58:28.381Z,29.20
2022-08-10T12:00:56.864Z,29.30
2022-08-10T12:03:31.335Z,29.20
2022-08-10T12:06:03.051Z,29.30
2022-08-10T12:10:05.065Z,29.50
2022-08-10T12:11:25.419Z,29.70
2022-08-10T12:16:52.462Z,29.80
2022-08-10T12:19:27.324Z,29.90
2022-08-10T12:22:05.931Z,30.10
2022-08-10T12:24:39.143Z,30.20
2022-08-10T12:27:13.230Z,30.30
2022-08-10T12:29:47.221Z,30.20
2022-08-10T12:32:25.578Z,30.20
2022-08-10T12:35:02.412Z,30.10
2022-08-10T12:37:36.635Z,30.10
2022-08-10T12:40:34.527Z,30.10
2022-08-10T12:43:15.256Z,30.10
2022-08-10T12:46:08.317Z,30.20
2022-08-10T12:48:40.480Z,30.20
2022-08-10T12:51:15.981Z,30.30
2022-08-10T12:53:52.170Z,30.30
2022-08-10T12:56:27.126Z,30.30
2022-08-10T12:58:58.261Z,30.40
2022-08-10T13:02:10.094Z,30.40
2022-08-10T13:04:26.629Z,30.30
2022-08-10T13:06:59.985Z,30.00
2022-08-10T13:09:28.753Z,30.10
2022-08-10T13:12:38.777Z,30.10
2022-08-10T13:14:54.975Z,30.00
2022-08-10T13:17:38.892Z,30.00
2022-08-10T13:20:15.969Z,30.00
2022-08-10T13:22:48.474Z,30.00
2022-08-10T13:25:19.313Z,30.20
2022-08-10T13:28:01.159Z,30.20
2022-08-10T13:30:37.980Z,30.30
2022-08-10T13:33:08.459Z,30.40
2022-08-10T13:35:37.680Z,30.50
2022-08-10T13:38:09.879Z,30.40
2022-08-10T13:40:39.502Z,30.40
2022-08-10T13:43:09.555Z,30.30
2022-08-10T13:45:49.228Z,30.20
2022-08-10T13:48:21.582Z,30.20
2022-08-10T13:50:52.167Z,30.20
2022-08-10T13:53:23.442Z,30.30
2022-08-10T13:55:56.395Z,30.30
2022-08-10T13:58:28.913Z,30.30
2022-08-10T14:00:59.282Z,29.90
2022-08-10T14:03:28.353Z,29.90
2022-08-10T14:05:58.321Z,29.90
2022-08-10T14:08:32.245Z,30.00
2022-08-10T14:11:11.234Z,29.90
2022-08-10T14:13:44.256Z,30.00
2022-08-10T14:16:13.844Z,30.00
2022-08-10T14:18:45.042Z,29.90
2022-08-10T14:21:14.290Z,29.90
2022-08-10T14:23:52.935Z,30.00
2022-08-10T14:26:25.084Z,30.00
2022-08-10T14:28:57.239Z,29.90
2022-08-10T14:31:33.521Z,30.00
2022-08-10T14:34:04.668Z,30.00
2022-08-10T14:36:41.695Z,30.00
2022-08-10T14:39:15.815Z,29.90
2022-08-10T14:42:03.317Z,29.90
2022-08-10T14:44:34.461Z,29.90
2022-08-10T14:47:20.179Z,30.00
2022-08-10T14:49:57.309Z,29.90
2022-08-10T14:52:28.135Z,29.90
2022-08-10T14:55:04.520Z,29.80
2022-08-10T14:58:19.269Z,29.80
2022-08-10T15:00:30.825Z,29.80
2022-08-10T15:03:11.155Z,29.80
2022-08-10T15:05:58.978Z,29.80
2022-08-10T15:08:36.704Z,29.80
2022-08-10T15:11:09.044Z,29.80
2022-08-10T15:14:38.727Z,29.80
2022-08-10T15:16:46.000Z,29.80
2022-08-10T15:20:03.265Z,29.80
2022-08-10T15:22:35.885Z,29.70
2022-08-10T15:25:19.231Z,29.70
2022-08-10T15:27:57.801Z,29.60
2022-08-10T15:30:40.904Z,29.50
2022-08-10T15:33:57.429Z,29.40
2022-08-10T15:36:38.390Z,29.30
2022-08-10T15:39:16.588Z,29.30
2022-08-10T15:42:02.733Z,29.20
2022-08-10T15:44:40.584Z,29.20
2022-08-10T15:47:15.088Z,29.20
2022-08-10T15:49:50.565Z,29.10
2022-08-10T15:52:39.376Z,29.20
2022-08-10T15:55:43.526Z,29.10
2022-08-10T15:58:07.648Z,29.10
2022-08-10T16:00:41.219Z,29.10
2022-08-10T16:03:17.098Z,29.00
2022-08-10T16:06:01.379Z,29.00
2022-08-10T16:08:56.631Z,28.90
2022-08-10T16:11:37.387Z,28.80
2022-08-10T16:14:18.034Z,28.70
2022-08-10T16:16:51.435Z,28.70
2022-08-10T16:19:24.336Z,28.70
2022-08-10T16:22:00.412Z,28.60
2022-08-10T16:24:33.063Z,28.60
2022-08-10T16:27:06.408Z,28.50
2022-08-10T16:29:54.439Z,28.50
2022-08-10T16:32:27.637Z,28.40
2022-08-10T16:34:57.664Z,28.40
2022-08-10T16:37:58.048Z,28.40
2022-08-10T16:40:25.756Z,28.30
2022-08-10T16:42:55.567Z,28.30
2022-08-10T16:45:30.530Z,28.20
2022-08-10T16:48:01.586Z,28.20
2022-08-10T16:50:31.950Z,28.10
2022-08-10T16:53:03.145Z,28.10
2022-08-10T16:55:48.123Z,28.00
2022-08-10T16:58:20.282Z,27.90
2022-08-10T17:00:50.439Z,27.80
2022-08-10T17:04:06.659Z,27.80
2022-08-10T17:06:31.493Z,27.70
2022-08-10T17:09:01.732Z,27.50
2022-08-10T17:11:32.145Z,27.40
2022-08-10T17:14:01.724Z,27.30
2022-08-10T17:16:35.815Z,27.20
2022-08-10T17:19:11.762Z,27.10
2022-08-10T17:21:51.732Z,27.00
2022-08-10T17:24:22.404Z,26.80
2022-08-10T17:26:51.838Z,26.70
2022-08-10T17:29:57.672Z,26.60
2022-08-10T17:32:20.929Z,26.50
2022-08-10T17:34:57.108Z,26.30
2022-08-10T17:37:28.934Z,26.20
2022-08-10T17:40:00.539Z,26.10
2022-08-10T17:42:29.309Z,26.00
2022-08-10T17:44:58.023Z,26.00
2022-08-10T17:47:28.035Z,25.90
2022-08-10T17:50:00.286Z,25.80
2022-08-10T17:52:33.389Z,25.70
2022-08-10T17:55:06.603Z,25.60
2022-08-10T17:57:37.881Z,25.60
2022-08-10T18:00:10.675Z,25.50
2022-08-10T18:02:41.958Z,25.40
2022-08-10T18:05:13.689Z,25.40
2022-08-10T18:07:46.690Z,25.30
2022-08-10T18:10:18.540Z,25.30
2022-08-10T18:12:48.560Z,25.20
2022-08-10T18:15:19.658Z,25.10
2022-08-10T18:17:51.091Z,25.00
2022-08-10T18:20:28.045Z,24.90
2022-08-10T18:22:58.278Z,24.80
2022-08-10T18:25:29.993Z,24.70
2022-08-10T18:28:04.391Z,24.60
2022-08-10T18:30:37.564Z,24.50
2022-08-10T18:33:11.760Z,24.50
2022-08-10T18:35:42.798Z,24.40
2022-08-10T18:38:13.099Z,24.30
2022-08-10T18:40:45.034Z,24.20
2022-08-10T18:44:04.755Z,24.20
2022-08-10T18:46:10.559Z,24.10
2022-08-10T18:48:42.968Z,24.10
2022-08-10T18:51:13.432Z,24.00
2022-08-10T18:53:48.194Z,23.90
2022-08-10T18:56:31.635Z,23.90
2022-08-10T19:01:48.426Z,23.80
2022-08-10T19:04:31.878Z,23.70
2022-08-10T19:07:36.324Z,23.60
2022-08-10T19:10:15.410Z,23.50
2022-08-10T19:12:50.069Z,23.40
2022-08-10T19:15:26.033Z,23.40
2022-08-10T19:18:12.607Z,23.30
2022-08-10T19:20:49.494Z,23.20
2022-08-10T19:23:38.787Z,23.10
2022-08-10T19:26:42.549Z,23.00
2022-08-10T19:30:12.345Z,22.90
2022-08-10T19:32:24.795Z,22.80
2022-08-10T19:35:02.216Z,22.80
2022-08-10T19:37:38.148Z,22.70
2022-08-10T19:40:21.634Z,22.60
2022-08-10T19:43:20.890Z,22.60
2022-08-10T19:46:13.468Z,22.50
2022-08-10T19:48:48.561Z,22.40
2022-08-10T19:51:23.922Z,22.30
2022-08-10T19:53:58.902Z,22.30
2022-08-10T19:56:39.796Z,22.30
2022-08-10T19:59:16.465Z,22.20
2022-08-10T20:02:05.056Z,22.20
2022-08-10T20:04:41.212Z,22.10
2022-08-10T20:07:14.868Z,22.10
2022-08-10T20:09:47.546Z,22.00
2022-08-10T20:12:28.898Z,22.00
2022-08-10T20:15:04.258Z,21.90
2022-08-10T20:17:45.151Z,21.80
2022-08-10T20:20:30.646Z,21.80
2022-08-10T20:23:09.462Z,21.70
2022-08-10T20:25:37.600Z,21.70
2022-08-10T20:28:18.635Z,21.60
2022-08-10T20:30:52.592Z,21.60
2022-08-10T20:33:28.361Z,21.50
2022-08-10T20:36:04.246Z,21.50
2022-08-10T20:38:38.241Z,21.40
2022-08-10T20:41:15.531Z,21.40
2022-08-10T20:43:53.971Z,21.40
2022-08-10T20:46:28.388Z,21.30
2022-08-10T20:49:00.861Z,21.20
2022-08-10T20:51:58.247Z,21.20
2022-08-10T20:54:33.460Z,21.20
2022-08-10T20:57:54.124Z,21.20
2022-08-10T21:00:14.391Z,21.10
2022-08-10T21:03:15.692Z,21.10
2022-08-10T21:05:59.946Z,21.00
2022-08-10T21:08:44.024Z,21.00
2022-08-10T21:11:22.166Z,20.90
2022-08-10T21:14:15.865Z,20.90
2022-08-10T21:17:05.065Z,20.90
2022-08-10T21:20:05.951Z,20.80
2022-08-10T21:22:42.104Z,20.80
2022-08-10T21:25:18.645Z,20.80
2022-08-10T21:28:16.657Z,20.80
2022-08-10T21:31:30.752Z,20.80
2022-08-10T21:34:17.685Z,20.70
2022-08-10T21:36:51.698Z,20.60
2022-08-10T21:39:41.968Z,20.60
2022-08-10T21:42:39.036Z,20.50
2022-08-10T21:45:57.063Z,20.50
2022-08-10T21:48:57.330Z,20.50
2022-08-10T21:52:03.895Z,20.50
2022-08-10T21:55:00.035Z,20.50
2022-08-10T21:57:58.098Z,20.40
2022-08-10T22:00:44.525Z,20.30
2022-08-10T22:03:39.934Z,20.30
2022-08-10T22:06:27.666Z,20.20
2022-08-10T22:09:20.614Z,20.20
2022-08-10T22:12:31.052Z,20.20
2022-08-10T22:15:23.914Z,20.10
2022-08-10T22:18:33.028Z,20.10
2022-08-10T22:21:29.658Z,20.10
2022-08-10T22:24:41.981Z,20.10
2022-08-10T22:27:47.264Z,20.00
2022-08-10T22:31:14.804Z,19.90
2022-08-10T22:34:08.556Z,19.90
2022-08-10T22:37:17.471Z,19.90
2022-08-10T22:40:16.812Z,19.80
2022-08-10T22:43:10.316Z,19.70
2022-08-10T22:46:03.266Z,19.70
2022-08-10T22:48:51.019Z,19.70
2022-08-10T22:51:24.418Z,19.70
2022-08-10T22:54:31.538Z,19.60
2022-08-10T22:57:19.952Z,19.60
2022-08-10T22:59:49.225Z,19.60
2022-08-10T23:02:31.319Z,19.50
2022-08-10T23:05:08.261Z,19.40
2022-08-10T23:07:46.348Z,19.40
2022-08-10T23:10:16.220Z,19.40
2022-08-10T23:12:49.846Z,19.40
2022-08-10T23:15:40.576Z,19.30
2022-08-10T23:18:29.043Z,19.30
2022-08-10T23:20:59.574Z,19.30
2022-08-10T23:23:30.065Z,19.20
2022-08-10T23:26:01.777Z,19.20
2022-08-10T23:28:39.045Z,19.20
2022-08-10T23:32:00.865Z,19.20
2022-08-10T23:34:14.615Z,19.20
2022-08-10T23:36:43.494Z,19.20
2022-08-10T23:39:26.415Z,19.20
2022-08-10T23:41:59.753Z,19.10
2022-08-10T23:44:38.038Z,19.10
2022-08-10T23:47:07.580Z,19.00
2022-08-10T23:49:38.302Z,18.90
2022-08-10T23:52:15.347Z,18.90
2022-08-10T23:54:47.101Z,18.90
2022-08-10T23:57:18.706Z,18.90
2022-08-10T23:59:53.892Z,18.80
